Time;durP1;ratioP1;P1;durP2;ratioP2;P2;SDS_P1;SDS_P2;PMS_P1;PMS_P2;Temp;Humidity;BMP_temperature;BMP_pressure;BME280_temperature;BME280_humidity;BME280_pressure;Samples;Min_cycle;Max_cycle;Signal;HPM_P1;HPM_P2
2023/01/13 00:06:08;;;;;;;3.83;0.90;;;;;;;9.75;100.00;99950.53;20806154;28;20049;-81
2023/01/13 00:16:09;;;;;;;5.50;1.00;;;;;;;9.68;100.00;99933.25;20808875;28;20050;-80
2023/01/13 00:26:11;;;;;;;4.50;0.90;;;;;;;9.78;100.00;99903.44;20811733;28;20056;-80
2023/01/13 00:36:12;;;;;;;4.32;0.63;;;;;;;9.95;100.00;99903.91;20828313;28;20038;-80
2023/01/13 00:46:13;;;;;;;5.03;0.82;;;;;;;10.05;100.00;99907.19;20808827;28;20060;-81
2023/01/13 00:56:15;;;;;;;4.82;0.80;;;;;;;9.86;100.00;99880.56;20817676;28;20093;-80
2023/01/13 01:06:20;;;;;;;5.05;0.70;;;;;;;9.64;100.00;99871.47;20807469;28;20045;-80
2023/01/13 01:16:21;;;;;;;3.53;0.75;;;;;;;9.55;100.00;99876.88;20815786;28;20100;-81
2023/01/13 01:26:22;;;;;;;3.95;0.68;;;;;;;9.36;100.00;99882.47;20825960;28;20037;-81
2023/01/13 01:36:30;;;;;;;4.53;1.30;;;;;;;9.08;100.00;99883.88;20824578;28;20050;-81
2023/01/13 01:46:31;;;;;;;2.95;0.80;;;;;;;9.01;100.00;99867.47;20798877;28;20056;-80
2023/01/13 01:56:33;;;;;;;4.05;1.05;;;;;;;9.00;100.00;99850.03;20792316;28;20199;-81
2023/01/13 02:06:35;;;;;;;2.40;0.57;;;;;;;9.10;100.00;99846.41;20806012;28;20046;-80
2023/01/13 02:16:36;;;;;;;1.90;0.73;;;;;;;9.15;100.00;99833.22;20827376;28;20045;-80
2023/01/13 02:26:38;;;;;;;1.95;0.52;;;;;;;9.11;100.00;99831.59;20831843;28;20045;-81
2023/01/13 02:36:39;;;;;;;3.72;1.00;;;;;;;9.05;100.00;99826.47;20795211;28;20056;-80
2023/01/13 02:46:41;;;;;;;3.42;0.88;;;;;;;9.00;100.00;99814.34;20804363;28;20075;-81
2023/01/13 02:56:42;;;;;;;4.15;1.10;;;;;;;8.99;100.00;99796.09;20798876;28;20041;-81
2023/01/13 03:06:44;;;;;;;2.67;0.60;;;;;;;9.11;100.00;99776.75;20825877;28;20116;-81
2023/01/13 03:16:45;;;;;;;2.38;0.68;;;;;;;9.22;100.00;99772.16;20824833;28;20049;-80
2023/01/13 03:26:47;;;;;;;4.43;0.55;;;;;;;9.42;100.00;99749.09;20822119;28;20057;-81
2023/01/13 03:36:48;;;;;;;1.83;0.50;;;;;;;9.64;100.00;99740.78;20822771;28;20061;-81
2023/01/13 03:46:51;;;;;;;2.22;0.70;;;;;;;9.67;100.00;99735.47;20777884;23;20046;-73
2023/01/13 03:56:53;;;;;;;4.28;0.80;;;;;;;9.66;100.00;99732.00;20734296;28;20049;-72
2023/01/13 04:06:54;;;;;;;2.17;0.70;;;;;;;9.79;100.00;99716.03;20732342;28;20573;-71
2023/01/13 04:16:55;;;;;;;2.53;0.60;;;;;;;9.75;100.00;99720.47;20731095;28;20378;-72
2023/01/13 04:26:57;;;;;;;2.50;0.50;;;;;;;9.83;100.00;99705.47;20731175;28;20486;-72
2023/01/13 04:36:58;;;;;;;4.82;0.63;;;;;;;9.83;100.00;99694.16;20729521;28;20046;-71
2023/01/13 04:47:00;;;;;;;3.15;0.50;;;;;;;9.91;100.00;99695.69;20728717;28;20061;-72
2023/01/13 04:57:01;;;;;;;4.80;0.93;;;;;;;9.87;100.00;99696.66;20729287;28;20042;-72
2023/01/13 05:07:02;;;;;;;2.15;0.50;;;;;;;9.81;100.00;99688.94;20727665;28;20060;-72
2023/01/13 05:17:04;;;;;;;3.65;0.82;;;;;;;9.84;100.00;99685.41;20726225;28;20405;-72
2023/01/13 05:27:05;;;;;;;3.00;0.55;;;;;;;9.81;100.00;99693.31;20725862;28;20096;-71
2023/01/13 05:37:07;;;;;;;2.42;0.47;;;;;;;9.80;100.00;99682.00;20725489;28;20076;-71
2023/01/13 05:47:08;;;;;;;2.83;0.90;;;;;;;9.84;100.00;99688.88;20724829;28;20046;-70
2023/01/13 05:57:09;;;;;;;6.90;1.67;;;;;;;9.75;100.00;99678.66;20724514;28;20056;-74
2023/01/13 06:07:11;;;;;;;1.73;0.60;;;;;;;9.86;100.00;99676.63;20722274;28;20072;-73
2023/01/13 06:17:12;;;;;;;2.03;0.68;;;;;;;9.78;100.00;99681.19;20723229;28;20065;-74
2023/01/13 06:27:14;;;;;;;3.08;0.70;;;;;;;9.70;100.00;99680.53;20723208;28;20418;-75
2023/01/13 06:37:15;;;;;;;2.05;0.80;;;;;;;9.64;100.00;99691.97;20721684;28;20490;-73
2023/01/13 06:47:17;;;;;;;2.70;0.70;;;;;;;9.53;100.00;99699.19;20722565;28;20058;-75
2023/01/13 06:57:18;;;;;;;3.88;1.33;;;;;;;9.56;100.00;99711.34;20722710;28;20120;-73
2023/01/13 07:07:19;;;;;;;2.00;0.60;;;;;;;9.67;100.00;99759.00;20721292;28;20050;-73
2023/01/13 07:17:23;;;;;;;3.33;0.55;;;;;;;8.62;100.00;99840.25;20719734;28;20057;-75
2023/01/13 07:27:25;;;;;;;;;;;;;;;8.17;100.00;99848.78;20720839;28;20120;-74
2023/01/13 07:37:26;;;;;;;3.65;0.45;;;;;;;8.28;100.00;99856.41;20725043;28;20545;-75
2023/01/13 07:47:28;;;;;;;2.80;0.55;;;;;;;8.26;100.00;99870.38;20735034;28;20050;-75
2023/01/13 07:57:29;;;;;;;3.35;0.50;;;;;;;8.34;100.00;99852.88;20734895;28;20066;-74
2023/01/13 08:07:31;;;;;;;5.55;1.05;;;;;;;8.40;100.00;99832.81;20733157;28;20057;-75
2023/01/13 08:17:32;;;;;;;3.58;0.80;;;;;;;8.25;100.00;99848.66;20732929;28;20588;-72
2023/01/13 08:27:33;;;;;;;6.35;1.10;;;;;;;8.15;100.00;99889.66;20730603;28;20682;-72
2023/01/13 08:37:34;;;;;;;3.45;0.90;;;;;;;8.16;100.00;99898.34;20729016;28;20057;-72
2023/01/13 08:47:36;;;;;;;3.72;0.90;;;;;;;8.23;100.00;99902.56;20729521;28;20466;-75
2023/01/13 08:57:37;;;;;;;9.13;1.30;;;;;;;8.16;100.00;99919.22;20727995;28;20046;-76
2023/01/13 09:07:38;;;;;;;11.07;2.47;;;;;;;8.33;100.00;99945.91;20728389;28;20054;-75
2023/01/13 09:17:40;;;;;;;3.53;0.95;;;;;;;8.37;100.00;99951.97;20717098;28;20053;-76
2023/01/13 09:27:41;;;;;;;6.80;1.58;;;;;;;8.51;100.00;99962.22;20727752;28;20046;-76
2023/01/13 09:37:43;;;;;;;7.20;2.60;;;;;;;8.59;100.00;99989.06;20726292;28;20494;-76
2023/01/13 09:47:44;;;;;;;5.47;1.08;;;;;;;8.60;100.00;100002.09;20726308;28;20053;-75
2023/01/13 09:57:46;;;;;;;9.27;2.50;;;;;;;9.02;100.00;99983.22;20724960;28;20045;-73
2023/01/13 10:07:47;;;;;;;6.70;2.13;;;;;;;9.31;100.00;99991.41;20722534;28;20540;-73
2023/01/13 10:17:49;;;;;;;6.32;1.60;;;;;;;9.17;100.00;100003.84;20718706;28;20144;-73
2023/01/13 10:27:51;;;;;;;8.65;1.85;;;;;;;9.28;100.00;100012.34;20719132;28;20080;-73
2023/01/13 10:37:52;;;;;;;8.10;1.63;;;;;;;9.41;100.00;100007.81;20718231;28;20061;-74
2023/01/13 10:47:53;;;;;;;8.35;1.50;;;;;;;9.57;100.00;100008.38;20714561;28;20449;-75
2023/01/13 10:57:55;;;;;;;13.40;1.88;;;;;;;9.85;100.00;100040.13;20716842;28;20054;-74
2023/01/13 11:07:56;;;;;;;7.38;1.30;;;;;;;10.03;100.00;100024.94;20719592;28;20498;-74
2023/01/13 11:17:59;;;;;;;10.85;1.80;;;;;;;10.10;100.00;100028.28;20735918;28;20085;-76
2023/01/13 11:28:00;;;;;;;7.95;1.52;;;;;;;10.17;100.00;100010.72;20736119;28;20085;-75
2023/01/13 11:38:02;;;;;;;9.45;1.60;;;;;;;10.21;100.00;100012.41;20733807;28;20054;-75
2023/01/13 11:48:03;;;;;;;8.38;1.50;;;;;;;9.63;100.00;100034.41;20734283;28;20067;-73
2023/01/13 11:58:04;;;;;;;13.77;1.75;;;;;;;9.51;100.00;100057.25;20732448;28;20414;-73
2023/01/13 12:08:08;;;;;;;8.23;1.80;;;;;;;9.51;100.00;100059.88;20732106;28;20057;-74
2023/01/13 12:18:10;;;;;;;8.77;1.40;;;;;;;9.64;100.00;100072.75;20732857;28;20049;-74
2023/01/13 12:28:12;;;;;;;7.22;1.38;;;;;;;9.10;100.00;100143.25;20732003;28;20057;-71
2023/01/13 12:38:13;;;;;;;9.45;2.08;;;;;;;8.20;100.00;100086.06;20732313;28;20050;-72
2023/01/13 12:48:15;;;;;;;10.27;1.58;;;;;;;8.35;100.00;100090.22;20730653;28;20060;-71
2023/01/13 12:58:16;;;;;;;8.07;1.08;;;;;;;8.40;100.00;100080.63;20729708;28;20450;-71
2023/01/13 13:08:17;;;;;;;7.35;1.40;;;;;;;8.44;100.00;100064.06;20728019;28;20057;-72
2023/01/13 13:18:19;;;;;;;11.88;1.65;;;;;;;8.27;100.00;100092.06;20726662;28;20050;-72
2023/01/13 13:28:21;;;;;;;7.43;1.17;;;;;;;8.41;100.00;100090.19;20728511;28;20056;-72
2023/01/13 13:48:42;;;;;;;15.35;2.65;;;;;;;8.45;100.00;100111.88;20727576;28;20049;-73
2023/01/13 13:58:44;;;;;;;14.02;1.65;;;;;;;8.35;100.00;100154.59;20724118;28;20045;-72
2023/01/13 14:08:45;;;;;;;11.98;1.85;;;;;;;8.31;100.00;100160.72;20724670;28;20064;-73
2023/01/13 14:18:47;;;;;;;9.98;2.03;;;;;;;8.32;100.00;100163.28;20726131;28;20085;-73
2023/01/13 14:28:48;;;;;;;10.45;1.60;;;;;;;8.34;100.00;100148.50;20721446;28;20058;-74
2023/01/13 14:38:49;;;;;;;12.23;1.52;;;;;;;8.29;100.00;100139.88;20719874;28;20065;-73
2023/01/13 14:48:51;;;;;;;12.70;2.25;;;;;;;8.16;100.00;100146.94;20726404;28;20046;-73
2023/01/13 14:58:52;;;;;;;13.30;2.50;;;;;;;8.31;100.00;100186.78;20737976;28;20050;-73
2023/01/13 15:08:53;;;;;;;12.30;2.35;;;;;;;8.36;100.00;100205.88;20736273;28;20465;-74
2023/01/13 15:18:55;;;;;;;11.07;2.00;;;;;;;8.40;100.00;100221.50;20727651;28;20563;-73
2023/01/13 15:28:56;;;;;;;12.82;3.13;;;;;;;8.22;100.00;100203.38;20724901;28;20133;-74
2023/01/13 15:38:58;;;;;;;11.00;1.83;;;;;;;8.01;100.00;100220.09;20727666;28;20046;-71
2023/01/13 15:48:59;;;;;;;7.75;1.90;;;;;;;7.83;100.00;100236.75;20732042;28;20079;-71
2023/01/13 15:59:00;;;;;;;10.02;1.80;;;;;;;7.66;100.00;100269.84;20731205;28;20073;-72
2023/01/13 16:09:02;;;;;;;13.35;2.15;;;;;;;7.60;100.00;100283.78;20731065;28;20060;-73
2023/01/13 16:19:04;;;;;;;7.90;1.67;;;;;;;7.51;100.00;100302.06;20730588;28;20084;-72
2023/01/13 16:29:06;;;;;;;9.70;1.88;;;;;;;7.27;100.00;100303.03;20729953;28;20054;-72
2023/01/13 16:39:07;;;;;;;9.70;1.92;;;;;;;7.08;100.00;100324.81;20728716;28;20509;-72
2023/01/13 16:49:08;;;;;;;8.90;1.77;;;;;;;7.13;100.00;100347.34;20729648;28;20056;-72
2023/01/13 16:59:10;;;;;;;10.85;2.00;;;;;;;7.30;100.00;100362.94;20725766;28;20058;-75
2023/01/13 17:09:11;;;;;;;16.98;5.03;;;;;;;7.31;100.00;100382.91;20723793;28;20494;-74
2023/01/13 17:19:12;;;;;;;14.30;2.90;;;;;;;7.42;100.00;100401.97;20725442;28;20060;-74
2023/01/13 17:29:13;;;;;;;12.45;2.80;;;;;;;7.41;100.00;100395.03;20725810;28;20050;-74
2023/01/13 17:39:15;;;;;;;8.25;2.00;;;;;;;7.33;100.00;100399.41;20720241;28;20057;-73
2023/01/13 17:49:16;;;;;;;10.65;2.72;;;;;;;7.17;100.00;100426.34;20721306;28;20744;-75
2023/01/13 17:59:17;;;;;;;6.40;1.80;;;;;;;7.17;100.00;100454.97;20723050;28;20076;-72
2023/01/13 18:09:19;;;;;;;9.38;1.65;;;;;;;7.03;100.00;100454.13;20719428;28;20399;-72
2023/01/13 18:29:40;;;;;;;6.78;1.38;;;;;;;6.91;100.00;100484.50;20721522;28;20104;-75
2023/01/13 18:39:41;;;;;;;6.15;1.30;;;;;;;7.09;100.00;100482.75;20721106;28;20046;-72
2023/01/13 18:49:42;;;;;;;9.90;1.55;;;;;;;7.12;100.00;100521.81;20717765;28;20054;-72
2023/01/13 18:59:44;;;;;;;10.10;1.70;;;;;;;6.97;100.00;100524.41;20716937;28;20048;-75
2023/01/13 19:09:45;;;;;;;9.93;2.35;;;;;;;6.91;100.00;100523.53;20711985;28;20057;-73
2023/01/13 19:19:47;;;;;;;10.60;2.50;;;;;;;6.84;100.00;100553.00;20717249;28;20258;-72
2023/01/13 19:29:48;;;;;;;12.90;2.95;;;;;;;6.83;100.00;100566.91;20714876;28;20061;-73
2023/01/13 19:39:52;;;;;;;7.73;2.43;;;;;;;6.65;100.00;100577.25;20730668;28;20397;-72
2023/01/13 19:49:54;;;;;;;9.25;3.03;;;;;;;6.61;100.00;100596.31;20732848;28;20486;-73
2023/01/13 19:59:55;;;;;;;6.90;2.88;;;;;;;6.60;100.00;100615.38;20729992;28;20109;-73
2023/01/13 20:09:56;;;;;;;8.80;2.72;;;;;;;6.62;100.00;100627.56;20730942;28;20054;-72
2023/01/13 20:19:58;;;;;;;7.55;1.75;;;;;;;6.42;100.00;100627.47;20730327;28;20061;-72
2023/01/13 20:29:59;;;;;;;7.20;1.65;;;;;;;6.38;100.00;100654.31;20729795;28;21403;-73
2023/01/13 20:40:00;;;;;;;12.82;2.13;;;;;;;6.52;100.00;100669.13;20728728;28;20513;-72
2023/01/13 20:50:02;;;;;;;11.40;2.40;;;;;;;6.72;100.00;100672.69;20727565;28;21016;-71
2023/01/13 21:00:03;;;;;;;12.52;1.73;;;;;;;7.10;100.00;100685.00;20726922;28;20132;-71
2023/01/13 21:10:05;;;;;;;9.52;2.17;;;;;;;7.14;100.00;100681.53;20726600;28;20077;-71
2023/01/13 21:20:06;;;;;;;11.85;2.05;;;;;;;7.24;100.00;100688.50;20719345;28;20049;-71
2023/01/13 21:30:08;;;;;;;11.95;2.88;;;;;;;7.37;100.00;100679.81;20723508;28;20049;-69
2023/01/13 21:40:09;;;;;;;11.48;2.45;;;;;;;7.19;100.00;100690.22;20746634;28;20056;-70
2023/01/13 21:50:10;;;;;;;12.98;2.17;;;;;;;7.12;100.00;100684.09;20726325;28;20049;-69
2023/01/13 22:00:11;;;;;;;10.40;2.20;;;;;;;6.79;100.00;100682.25;20723780;28;20049;-71
2023/01/13 22:10:13;;;;;;;15.52;2.80;;;;;;;6.65;100.00;100699.53;20722196;28;20056;-71
2023/01/13 22:20:14;;;;;;;13.88;2.45;;;;;;;6.56;100.00;100700.34;20722701;28;20065;-73
2023/01/13 22:30:16;;;;;;;11.70;2.40;;;;;;;6.50;100.00;100704.66;20721975;28;20050;-72
2023/01/13 22:40:18;;;;;;;18.67;2.15;;;;;;;6.44;100.00;100715.91;20721320;28;20049;-73
2023/01/13 22:50:21;;;;;;;15.30;2.17;;;;;;;6.39;100.00;100731.47;20721565;28;21016;-73
2023/01/13 23:00:23;;;;;;;10.80;1.90;;;;;;;6.35;100.00;100732.31;20718530;28;20058;-72
2023/01/13 23:10:25;;;;;;;15.90;3.15;;;;;;;6.45;100.00;100734.97;20731629;28;20045;-72
2023/01/13 23:20:26;;;;;;;14.45;1.90;;;;;;;6.36;100.00;100715.84;20737277;28;20084;-71
2023/01/13 23:30:27;;;;;;;19.00;2.95;;;;;;;6.30;100.00;100726.22;20737213;28;20058;-73
2023/01/13 23:40:28;;;;;;;15.13;3.13;;;;;;;6.19;100.00;100738.28;20737573;28;20058;-74
2023/01/13 23:50:30;;;;;;;19.30;2.55;;;;;;;6.21;100.00;100746.09;20736327;28;20089;-73
